createdAt,value
2023-08-29T00:01:06.226Z,8.13
2023-08-29T00:02:42.510Z,8.98
2023-08-29T00:04:15.981Z,8.23
2023-08-29T00:05:48.192Z,8.23
2023-08-29T00:07:20.368Z,7.80
2023-08-29T00:08:52.517Z,8.63
2023-08-29T00:10:25.078Z,8.93
2023-08-29T00:11:57.651Z,8.10
2023-08-29T00:13:29.957Z,10.30
2023-08-29T00:15:02.690Z,7.93
2023-08-29T00:16:34.952Z,7.80
2023-08-29T00:18:07.413Z,9.88
2023-08-29T00:19:39.956Z,9.10
2023-08-29T00:21:12.083Z,11.40
2023-08-29T00:22:44.221Z,7.95
2023-08-29T00:24:16.351Z,8.15
2023-08-29T00:25:48.477Z,9.05
2023-08-29T00:35:58.629Z,8.90
2023-08-29T00:37:30.759Z,9.13
2023-08-29T00:39:03.415Z,8.80
2023-08-29T00:40:36.578Z,8.20
2023-08-29T00:42:08.712Z,8.63
2023-08-29T00:43:40.943Z,9.23
2023-08-29T00:45:13.060Z,7.93
2023-08-29T00:46:46.614Z,8.80
2023-08-29T00:48:18.835Z,8.18
2023-08-29T00:49:51.738Z,7.85
2023-08-29T00:51:23.951Z,9.73
2023-08-29T00:52:59.832Z,8.02
2023-08-29T00:54:31.997Z,8.50
2023-08-29T00:56:06.185Z,8.82
2023-08-29T00:57:38.445Z,8.23
2023-08-29T00:59:10.720Z,9.02
2023-08-29T01:00:43.387Z,7.53
2023-08-29T01:02:15.499Z,7.65
2023-08-29T01:03:47.853Z,8.93
2023-08-29T01:05:22.074Z,8.67
2023-08-29T01:06:56.786Z,7.68
2023-08-29T01:08:28.962Z,7.75
2023-08-29T01:10:01.152Z,8.40
2023-08-29T01:11:47.481Z,8.25
2023-08-29T01:13:28.297Z,8.05
2023-08-29T01:15:06.800Z,9.25
2023-08-29T01:16:43.123Z,9.02
2023-08-29T01:18:16.442Z,9.02
2023-08-29T01:21:47.402Z,9.70
2023-08-29T01:23:26.702Z,10.85
2023-08-29T01:25:06.862Z,9.68
2023-08-29T01:26:39.304Z,8.60
2023-08-29T01:28:11.547Z,11.13
2023-08-29T01:29:44.658Z,8.45
2023-08-29T01:34:23.733Z,8.43
2023-08-29T01:35:55.896Z,7.80
2023-08-29T01:37:27.986Z,8.57
2023-08-29T01:39:00.132Z,9.07
2023-08-29T01:40:32.456Z,8.82
2023-08-29T01:42:04.753Z,9.80
2023-08-29T01:43:36.943Z,9.40
2023-08-29T01:45:09.474Z,8.75
2023-08-29T01:46:41.950Z,8.15
2023-08-29T01:48:15.595Z,8.57
2023-08-29T01:49:47.800Z,8.13
2023-08-29T01:51:20.031Z,7.60
2023-08-29T01:52:52.125Z,12.35
2023-08-29T01:54:24.297Z,9.07
2023-08-29T01:55:57.040Z,9.88
2023-08-29T01:57:30.082Z,7.88
2023-08-29T01:59:02.533Z,8.75
2023-08-29T02:00:35.342Z,8.67
2023-08-29T02:02:08.918Z,8.35
2023-08-29T02:03:41.013Z,8.60
2023-08-29T02:05:13.206Z,7.90
2023-08-29T02:06:45.456Z,9.82
2023-08-29T02:08:17.677Z,8.13
2023-08-29T02:09:49.840Z,8.90
2023-08-29T02:11:21.959Z,8.15
2023-08-29T02:12:54.406Z,7.80
2023-08-29T02:14:26.539Z,8.47
2023-08-29T02:15:58.909Z,8.40
2023-08-29T02:17:31.330Z,8.82
2023-08-29T05:32:29.557Z,42.30
2023-08-29T05:34:01.827Z,8.93
2023-08-29T05:37:07.775Z,9.98
2023-08-29T05:38:40.032Z,7.85
2023-08-29T05:40:12.520Z,8.73
2023-08-29T05:41:44.668Z,10.07
2023-08-29T05:43:16.909Z,9.50
2023-08-29T05:44:49.182Z,8.68
2023-08-29T05:46:22.202Z,9.40
2023-08-29T05:47:54.521Z,7.97
2023-08-29T05:49:26.817Z,9.88
2023-08-29T05:50:58.991Z,7.95
2023-08-29T05:52:31.374Z,9.68
2023-08-29T05:54:03.655Z,9.33
2023-08-29T05:55:35.870Z,8.73
2023-08-29T05:57:11.307Z,13.48
2023-08-29T05:58:52.528Z,15.65
2023-08-29T06:02:21.676Z,8.30
2023-08-29T06:07:48.477Z,9.95
2023-08-29T06:09:21.132Z,10.65
2023-08-29T06:11:02.282Z,9.68
2023-08-29T06:12:34.487Z,11.23
2023-08-29T06:14:07.256Z,10.90
2023-08-29T06:15:39.616Z,10.05
2023-08-29T06:17:11.845Z,9.55
2023-08-29T06:18:44.984Z,10.63
2023-08-29T06:20:18.106Z,11.18
2023-08-29T06:23:22.686Z,10.85
2023-08-29T06:24:56.674Z,8.95
2023-08-29T06:26:28.875Z,8.88
2023-08-29T06:28:01.608Z,8.20
2023-08-29T06:29:33.838Z,11.93
2023-08-29T06:31:08.678Z,11.03
2023-08-29T06:32:41.875Z,8.48
2023-08-29T06:34:14.212Z,8.40
2023-08-29T06:35:47.060Z,7.73
2023-08-29T06:37:19.513Z,7.50
2023-08-29T06:38:51.819Z,7.57
2023-08-29T06:40:24.080Z,8.93
2023-08-29T06:41:57.095Z,8.33
2023-08-29T06:43:29.309Z,7.13
2023-08-29T06:45:01.569Z,8.45
2023-08-29T06:46:33.778Z,8.93
2023-08-29T06:48:06.576Z,7.27
2023-08-29T06:49:39.452Z,7.15
2023-08-29T06:51:11.827Z,8.48
2023-08-29T06:52:43.987Z,8.65
2023-08-29T06:54:16.245Z,8.30
2023-08-29T06:55:49.391Z,8.70
2023-08-29T06:58:54.446Z,7.65
2023-08-29T07:01:59.179Z,8.02
2023-08-29T07:03:31.645Z,6.47
2023-08-29T07:05:03.890Z,8.82
2023-08-29T07:06:36.235Z,7.77
2023-08-29T07:08:09.431Z,6.70
2023-08-29T07:09:45.036Z,7.20
2023-08-29T07:11:18.253Z,6.72
2023-08-29T07:14:22.964Z,7.32
2023-08-29T07:15:55.504Z,7.70
2023-08-29T07:17:28.094Z,8.88
2023-08-29T07:19:00.417Z,9.23
2023-08-29T07:20:33.393Z,8.82
2023-08-29T07:22:17.478Z,6.55
2023-08-29T07:23:56.044Z,8.57
2023-08-29T07:25:40.416Z,8.02
2023-08-29T07:27:12.874Z,6.95
2023-08-29T07:28:45.147Z,10.02
2023-08-29T07:30:21.023Z,7.25
2023-08-29T07:31:53.445Z,8.43
2023-08-29T07:33:25.829Z,6.70
2023-08-29T07:34:58.598Z,7.22
2023-08-29T07:36:33.371Z,6.93
2023-08-29T07:38:06.033Z,8.05
2023-08-29T07:39:38.376Z,8.32
2023-08-29T07:41:10.565Z,7.78
2023-08-29T07:42:42.765Z,6.73
2023-08-29T07:44:15.128Z,7.67
2023-08-29T07:45:49.740Z,7.55
2023-08-29T07:47:22.041Z,8.30
2023-08-29T07:48:54.285Z,7.38
2023-08-29T07:50:27.030Z,8.55
2023-08-29T07:51:59.573Z,8.07
2023-08-29T07:53:31.777Z,7.78
2023-08-29T07:55:06.097Z,9.67
2023-08-29T07:56:38.505Z,8.52
2023-08-29T07:58:10.740Z,7.18
2023-08-29T07:59:43.427Z,7.50
2023-08-29T08:01:15.604Z,7.03
2023-08-29T08:02:47.917Z,8.73
2023-08-29T08:04:20.442Z,6.53
2023-08-29T08:05:52.871Z,8.48
2023-08-29T08:07:24.998Z,9.82
2023-08-29T08:09:00.560Z,7.67
2023-08-29T08:14:54.500Z,7.00
2023-08-29T08:16:26.774Z,6.82
2023-08-29T08:17:59.147Z,6.57
2023-08-29T08:19:31.608Z,7.35
2023-08-29T08:21:04.101Z,10.18
2023-08-29T08:22:37.474Z,9.15
2023-08-29T08:24:09.847Z,9.25
2023-08-29T08:25:42.064Z,9.07
2023-08-29T08:27:14.440Z,8.88
2023-08-29T08:28:46.706Z,7.25
2023-08-29T08:30:19.301Z,8.18
2023-08-29T08:31:51.548Z,7.22
2023-08-29T08:33:26.286Z,7.53
2023-08-29T08:40:42.440Z,7.80
2023-08-29T08:56:24.756Z,8.35
2023-08-29T08:57:57.684Z,8.45
2023-08-29T09:01:02.336Z,8.05
2023-08-29T09:02:35.488Z,9.18
2023-08-29T09:04:10.429Z,8.43
2023-08-29T09:05:44.361Z,11.50
2023-08-29T09:07:17.484Z,8.75
2023-08-29T09:08:50.519Z,9.13
2023-08-29T09:10:24.950Z,8.85
2023-08-29T09:11:59.295Z,8.77
2023-08-29T09:13:32.036Z,10.35
2023-08-29T09:15:07.713Z,7.65
2023-08-29T09:16:40.994Z,7.90
2023-08-29T09:18:16.150Z,7.50
2023-08-29T09:19:48.964Z,7.80
2023-08-29T09:21:23.296Z,10.02
2023-08-29T09:22:58.352Z,8.85
2023-08-29T09:24:30.856Z,10.07
2023-08-29T09:26:03.088Z,8.32
2023-08-29T09:27:42.173Z,9.02
2023-08-29T09:29:28.463Z,7.38
2023-08-29T09:31:08.510Z,7.75
2023-08-29T09:32:54.484Z,7.18
2023-08-29T09:34:36.630Z,8.60
2023-08-29T09:36:09.922Z,8.82
2023-08-29T09:37:46.691Z,10.77
2023-08-29T09:39:19.177Z,8.10
2023-08-29T09:40:53.371Z,8.57
2023-08-29T09:42:25.541Z,6.60
2023-08-29T09:43:59.025Z,8.90
2023-08-29T09:45:32.954Z,8.48
2023-08-29T09:47:07.304Z,8.23
2023-08-29T09:48:56.536Z,7.13
2023-08-29T09:50:30.307Z,8.02
2023-08-29T09:52:04.352Z,8.90
2023-08-29T09:53:36.789Z,8.30
2023-08-29T09:57:40.306Z,18.33
2023-08-29T09:59:16.953Z,7.72
2023-08-29T10:00:49.599Z,8.95
2023-08-29T10:02:23.882Z,8.50
2023-08-29T10:03:58.735Z,7.03
2023-08-29T10:05:36.460Z,8.13
2023-08-29T10:07:10.277Z,10.23
2023-08-29T10:08:52.058Z,8.05
2023-08-29T10:10:25.893Z,9.23
2023-08-29T10:11:59.834Z,7.90
2023-08-29T10:13:32.161Z,8.88
2023-08-29T10:15:05.708Z,9.25
2023-08-29T10:16:39.260Z,8.23
2023-08-29T10:18:14.330Z,6.93
2023-08-29T10:19:46.721Z,8.80
2023-08-29T10:21:23.110Z,6.90
2023-08-29T10:22:56.117Z,8.48
2023-08-29T10:24:28.648Z,8.25
2023-08-29T10:26:02.664Z,7.65
2023-08-29T10:27:35.974Z,8.77
2023-08-29T10:29:08.634Z,7.70
2023-08-29T10:30:45.148Z,9.95
2023-08-29T10:32:17.762Z,7.95
2023-08-29T10:33:50.157Z,8.18
2023-08-29T10:35:25.661Z,7.25
2023-08-29T10:36:58.645Z,8.70
2023-08-29T10:38:31.977Z,8.07
2023-08-29T10:40:15.604Z,8.23
2023-08-29T10:41:48.576Z,7.72
2023-08-29T10:43:25.936Z,8.23
2023-08-29T10:44:58.320Z,11.10
2023-08-29T10:46:31.596Z,9.07
2023-08-29T10:48:04.924Z,8.30
2023-08-29T10:49:46.729Z,8.10
2023-08-29T10:51:26.741Z,8.00
2023-08-29T10:53:00.237Z,8.40
2023-08-29T10:54:32.411Z,8.68
2023-08-29T10:56:07.096Z,8.35
2023-08-29T10:57:39.362Z,10.30
2023-08-29T10:59:36.189Z,9.85
2023-08-29T11:01:11.119Z,8.10
2023-08-29T11:21:10.659Z,16.42
2023-08-29T11:22:49.584Z,14.40
2023-08-29T11:24:23.475Z,18.92
2023-08-29T11:25:56.042Z,19.50
2023-08-29T12:01:41.619Z,12.55
2023-08-29T12:06:32.577Z,10.25
2023-08-29T12:32:04.857Z,10.48
2023-08-29T12:33:37.449Z,12.93
2023-08-29T12:35:10.146Z,9.73
2023-08-29T12:36:42.375Z,10.15
2023-08-29T12:38:15.202Z,10.02
2023-08-29T12:39:47.457Z,10.77
2023-08-29T12:41:19.892Z,9.20
2023-08-29T12:42:53.498Z,9.95
2023-08-29T12:44:25.627Z,10.88
2023-08-29T12:46:00.263Z,10.67
2023-08-29T12:47:32.842Z,9.88
2023-08-29T12:49:05.231Z,11.80
2023-08-29T12:53:50.935Z,10.07
2023-08-29T12:55:23.163Z,9.40
2023-08-29T12:58:30.692Z,12.35
2023-08-29T13:00:03.289Z,9.65
2023-08-29T13:01:35.468Z,10.57
2023-08-29T13:03:08.083Z,10.93
2023-08-29T13:04:40.659Z,11.50
2023-08-29T13:06:12.787Z,12.02
2023-08-29T13:07:47.329Z,11.60
2023-08-29T13:09:34.650Z,11.32
2023-08-29T13:11:08.849Z,9.63
2023-08-29T13:12:41.616Z,13.05
2023-08-29T13:17:31.348Z,13.65
2023-08-29T13:19:04.277Z,13.70
2023-08-29T13:22:08.175Z,18.73
2023-08-29T13:23:40.448Z,16.73
2023-08-29T13:25:12.681Z,11.88
2023-08-29T13:26:44.768Z,13.83
2023-08-29T13:28:16.879Z,14.70
2023-08-29T13:29:49.022Z,15.27
2023-08-29T13:31:24.457Z,15.23
2023-08-29T13:32:56.905Z,15.55
2023-08-29T13:34:29.439Z,15.30
2023-08-29T13:36:01.589Z,18.77
2023-08-29T13:37:36.639Z,17.73
2023-08-29T13:39:08.801Z,15.40
2023-08-29T13:40:44.013Z,15.77
2023-08-29T13:42:18.909Z,19.38
2023-08-29T13:43:51.372Z,15.73
2023-08-29T13:45:23.587Z,16.08
2023-08-29T13:46:55.712Z,17.00
2023-08-29T13:48:27.883Z,14.48
2023-08-29T13:50:00.229Z,18.27
2023-08-29T13:51:32.343Z,14.13
2023-08-29T13:53:04.808Z,17.15
2023-08-29T13:54:37.789Z,14.40
2023-08-29T13:56:10.059Z,12.20
2023-08-29T13:57:42.158Z,15.63
2023-08-29T13:59:14.334Z,15.60
2023-08-29T14:00:46.690Z,13.77
2023-08-29T14:02:19.112Z,13.02
2023-08-29T14:03:51.285Z,12.80
2023-08-29T14:05:23.672Z,15.75
2023-08-29T14:06:56.243Z,14.00
2023-08-29T14:08:28.440Z,13.95
2023-08-29T14:10:00.572Z,14.82
2023-08-29T14:11:32.816Z,16.65
2023-08-29T14:13:05.308Z,12.63
2023-08-29T14:14:37.541Z,16.40
2023-08-29T14:16:10.479Z,11.77
2023-08-29T14:17:43.876Z,14.15
2023-08-29T14:21:01.536Z,14.48
2023-08-29T14:22:33.920Z,12.63
2023-08-29T14:24:06.282Z,11.60
2023-08-29T14:29:00.545Z,13.40
2023-08-29T14:30:32.801Z,13.75
2023-08-29T14:32:06.933Z,17.60
2023-08-29T14:33:39.311Z,15.05
2023-08-29T14:35:11.514Z,17.75
2023-08-29T14:36:43.591Z,17.73
2023-08-29T14:38:15.696Z,13.40
2023-08-29T14:39:48.347Z,13.57
2023-08-29T14:41:20.720Z,14.13
2023-08-29T14:42:52.880Z,14.93
2023-08-29T14:44:25.004Z,13.00
2023-08-29T14:45:58.745Z,14.15
2023-08-29T14:47:30.933Z,14.57
2023-08-29T14:49:04.399Z,14.27
2023-08-29T14:50:36.749Z,13.15
2023-08-29T14:52:08.867Z,13.68
2023-08-29T14:53:41.544Z,12.57
2023-08-29T14:55:13.841Z,13.85
2023-08-29T14:56:46.013Z,21.83
2023-08-29T14:58:18.165Z,16.63
2023-08-29T14:59:50.551Z,16.13
2023-08-29T15:01:23.688Z,12.38
2023-08-29T15:06:02.836Z,24.40
2023-08-29T15:07:34.964Z,19.60
2023-08-29T15:09:09.006Z,37.22
2023-08-29T15:10:41.402Z,19.48
2023-08-29T15:12:13.597Z,14.87
2023-08-29T15:13:48.674Z,16.73
2023-08-29T15:15:20.954Z,15.07
2023-08-29T15:16:53.254Z,12.90
2023-08-29T15:18:25.368Z,14.07
2023-08-29T15:19:58.352Z,16.40
2023-08-29T15:35:24.343Z,14.13
2023-08-29T15:36:57.245Z,13.75
2023-08-29T15:38:30.578Z,26.23
2023-08-29T15:40:02.800Z,21.73
2023-08-29T15:41:34.965Z,12.60
2023-08-29T15:43:07.095Z,29.73
2023-08-29T15:44:39.271Z,51.50
2023-08-29T15:46:11.486Z,29.73
2023-08-29T15:47:44.460Z,18.70
2023-08-29T15:50:49.631Z,17.17
2023-08-29T15:52:21.774Z,14.20
2023-08-29T15:53:53.948Z,38.10
2023-08-29T15:55:26.074Z,46.28
2023-08-29T15:56:58.503Z,36.33
2023-08-29T15:58:30.879Z,20.92
2023-08-29T16:00:10.978Z,21.40
2023-08-29T16:01:43.187Z,12.85
2023-08-29T16:03:15.491Z,19.10
2023-08-29T16:04:47.844Z,21.27
2023-08-29T16:06:20.863Z,33.92
2023-08-29T16:07:53.751Z,47.63
2023-08-29T16:09:26.584Z,33.55
2023-08-29T16:10:58.964Z,21.05
2023-08-29T16:12:33.012Z,31.95
2023-08-29T16:14:05.192Z,29.98
2023-08-29T16:15:37.983Z,21.73
2023-08-29T16:17:10.236Z,17.70
2023-08-29T16:18:42.430Z,23.60
2023-08-29T16:20:15.101Z,26.42
2023-08-29T16:21:48.503Z,23.17
2023-08-29T16:23:20.879Z,54.03
2023-08-29T16:24:57.417Z,81.05
2023-08-29T16:26:30.740Z,45.90
2023-08-29T16:28:03.482Z,34.72
2023-08-29T16:29:38.602Z,34.97
2023-08-29T16:31:11.228Z,38.30
2023-08-29T16:32:43.739Z,35.63
2023-08-29T16:35:57.009Z,21.83
2023-08-29T16:37:29.209Z,20.77
2023-08-29T16:39:01.785Z,21.67
2023-08-29T16:40:35.805Z,25.83
2023-08-29T16:42:08.408Z,22.75
2023-08-29T16:43:42.629Z,19.65
2023-08-29T16:45:14.924Z,16.02
2023-08-29T16:46:47.340Z,20.20
2023-08-29T16:48:22.356Z,17.95
2023-08-29T16:49:54.693Z,19.77
2023-08-29T16:51:27.356Z,17.30
2023-08-29T16:52:59.564Z,20.33
2023-08-29T16:54:31.721Z,20.60
2023-08-29T16:56:08.900Z,18.00
2023-08-29T16:57:41.604Z,16.35
2023-08-29T16:59:13.781Z,15.68
2023-08-29T17:00:47.325Z,15.32
2023-08-29T17:02:19.730Z,17.38
2023-08-29T17:03:52.172Z,16.60
2023-08-29T17:05:24.696Z,16.15
2023-08-29T17:06:56.938Z,16.45
2023-08-29T17:08:29.315Z,19.80
2023-08-29T17:10:01.944Z,15.65
2023-08-29T17:11:34.115Z,20.02
2023-08-29T17:13:06.415Z,19.65
2023-08-29T17:14:39.798Z,21.60
2023-08-29T17:16:12.450Z,18.67
2023-08-29T17:17:45.048Z,17.70
2023-08-29T17:19:17.834Z,17.40
2023-08-29T17:20:50.144Z,15.57
2023-08-29T17:22:22.425Z,15.03
2023-08-29T17:23:54.634Z,14.33
2023-08-29T17:25:26.766Z,13.83
2023-08-29T17:26:59.083Z,13.30
2023-08-29T17:28:31.392Z,18.67
2023-08-29T17:30:06.842Z,19.33
2023-08-29T17:31:39.430Z,16.95
2023-08-29T17:33:11.656Z,18.17
2023-08-29T17:43:04.332Z,53.03
2023-08-29T17:44:37.387Z,17.27
2023-08-29T17:47:58.554Z,15.70
2023-08-29T17:49:30.703Z,15.32
2023-08-29T17:51:04.063Z,14.70
2023-08-29T17:52:36.360Z,12.77
2023-08-29T17:54:08.584Z,14.50
2023-08-29T17:55:40.705Z,13.73
2023-08-29T17:57:12.839Z,15.00
2023-08-29T17:58:49.896Z,16.73
2023-08-29T18:00:22.556Z,18.00
2023-08-29T18:01:54.816Z,13.25
2023-08-29T18:03:27.124Z,16.80
2023-08-29T18:04:59.915Z,12.10
2023-08-29T18:06:32.068Z,14.57
2023-08-29T18:08:05.428Z,14.82
2023-08-29T18:09:38.275Z,17.48
2023-08-29T18:11:10.922Z,16.23
2023-08-29T18:12:46.217Z,16.23
2023-08-29T18:14:33.183Z,13.95
2023-08-29T18:16:12.033Z,16.45
2023-08-29T18:17:47.483Z,14.50
2023-08-29T18:22:42.599Z,17.05
2023-08-29T18:25:55.684Z,15.88
2023-08-29T18:27:27.864Z,16.67
2023-08-29T18:30:43.354Z,18.58
2023-08-29T18:32:15.897Z,20.10
2023-08-29T18:35:20.838Z,19.92
2023-08-29T18:36:52.950Z,24.05
2023-08-29T18:38:25.408Z,20.02
2023-08-29T18:39:58.338Z,14.13
2023-08-29T18:41:30.584Z,19.40
2023-08-29T18:43:06.297Z,16.88
2023-08-29T18:44:38.466Z,14.27
2023-08-29T18:46:12.114Z,19.63
2023-08-29T18:47:44.488Z,17.05
2023-08-29T18:49:16.645Z,15.52
2023-08-29T18:51:06.996Z,18.30
2023-08-29T18:52:39.225Z,16.35
2023-08-29T19:04:16.020Z,14.90
2023-08-29T19:05:48.226Z,14.40
2023-08-29T19:07:20.565Z,15.25
2023-08-29T19:08:53.108Z,13.30
2023-08-29T19:10:25.517Z,15.13
2023-08-29T19:11:58.946Z,15.93
2023-08-29T19:15:07.250Z,16.05
2023-08-29T19:16:39.555Z,16.88
2023-08-29T19:18:15.088Z,13.10
2023-08-29T19:19:47.448Z,12.27
2023-08-29T19:21:19.585Z,14.13
2023-08-29T19:22:51.679Z,12.35
2023-08-29T19:24:23.792Z,14.45
2023-08-29T19:25:59.353Z,14.15
2023-08-29T19:27:32.681Z,15.00
2023-08-29T19:29:04.851Z,14.70
2023-08-29T19:30:36.986Z,13.20
2023-08-29T19:32:09.131Z,14.85
2023-08-29T19:33:41.408Z,16.27
2023-08-29T19:35:15.470Z,12.70
2023-08-29T19:42:38.648Z,15.32
2023-08-29T19:44:11.385Z,13.65
2023-08-29T19:45:43.939Z,13.50
2023-08-29T19:48:52.745Z,15.52
2023-08-29T19:50:24.949Z,14.00
2023-08-29T19:51:57.314Z,14.50
2023-08-29T19:53:29.467Z,14.93
2023-08-29T19:55:02.176Z,13.82
2023-08-29T19:56:34.327Z,13.90
2023-08-29T19:58:06.702Z,15.25
2023-08-29T19:59:39.635Z,13.50
2023-08-29T20:01:11.882Z,16.50
2023-08-29T20:02:47.918Z,15.27
2023-08-29T20:04:20.157Z,12.82
2023-08-29T20:05:53.962Z,16.88
2023-08-29T20:07:26.128Z,14.13
2023-08-29T20:08:58.423Z,16.70
2023-08-29T20:10:30.849Z,17.73
2023-08-29T20:12:03.230Z,19.17
2023-08-29T20:13:35.433Z,15.70
2023-08-29T20:15:08.236Z,13.73
2023-08-29T20:16:40.628Z,17.13
2023-08-29T20:18:13.891Z,15.15
2023-08-29T20:19:46.063Z,15.75
2023-08-29T20:21:18.312Z,16.83
2023-08-29T20:22:50.480Z,19.10
2023-08-29T20:24:22.659Z,15.15
2023-08-29T20:25:55.843Z,15.57
2023-08-29T20:29:03.065Z,15.25
2023-08-29T20:30:39.331Z,15.18
2023-08-29T20:32:11.811Z,17.45
2023-08-29T20:33:43.901Z,20.90
2023-08-29T20:35:16.252Z,12.57
2023-08-29T20:36:50.060Z,11.80
2023-08-29T20:38:22.822Z,15.57
2023-08-29T20:39:55.227Z,14.32
2023-08-29T20:41:27.417Z,14.35
2023-08-29T20:43:00.082Z,14.48
2023-08-29T20:44:32.699Z,17.65
2023-08-29T20:46:04.767Z,12.45
2023-08-29T20:47:37.893Z,15.90
2023-08-29T20:49:10.057Z,15.02
2023-08-29T20:50:48.258Z,15.07
2023-08-29T20:52:21.713Z,25.17
2023-08-29T20:53:53.769Z,19.17
2023-08-29T20:55:26.076Z,14.73
2023-08-29T20:56:58.192Z,17.20
2023-08-29T20:58:30.550Z,18.08
2023-08-29T21:00:02.773Z,15.80
2023-08-29T21:01:35.406Z,20.27
2023-08-29T21:03:08.264Z,20.95
2023-08-29T21:11:21.389Z,18.30
2023-08-29T21:14:26.399Z,14.73
2023-08-29T21:20:06.854Z,17.25
2023-08-29T21:21:39.106Z,15.98
2023-08-29T21:34:19.608Z,15.57
2023-08-29T21:35:53.095Z,14.82
2023-08-29T21:37:25.284Z,16.70
2023-08-29T21:38:57.609Z,17.48
2023-08-29T21:40:29.970Z,19.90
2023-08-29T21:42:02.006Z,18.95
2023-08-29T21:43:34.284Z,19.38
2023-08-29T21:45:09.118Z,14.63
2023-08-29T21:46:41.325Z,15.32
2023-08-29T21:48:13.571Z,16.85
2023-08-29T21:49:45.823Z,20.77
2023-08-29T21:54:30.849Z,14.30
2023-08-29T21:56:09.517Z,16.65
2023-08-29T21:57:41.682Z,21.63
2023-08-29T21:59:14.576Z,16.17
2023-08-29T22:00:54.122Z,14.10
2023-08-29T22:02:26.384Z,17.00
2023-08-29T22:05:34.844Z,16.10
2023-08-29T22:35:24.841Z,15.98
2023-08-29T22:36:56.972Z,15.13
2023-08-29T22:38:29.395Z,19.33
2023-08-29T22:40:02.497Z,14.85
2023-08-29T22:41:35.058Z,15.02
2023-08-29T22:43:07.326Z,15.15
2023-08-29T22:44:42.566Z,15.20
2023-08-29T22:46:14.851Z,16.35
2023-08-29T22:47:47.066Z,15.23
2023-08-29T22:49:20.074Z,12.93
2023-08-29T22:50:52.191Z,16.40
2023-08-29T22:52:24.898Z,15.00
2023-08-29T22:53:58.750Z,16.02
2023-08-29T22:55:31.294Z,15.02
2023-08-29T22:57:03.913Z,16.23
2023-08-29T22:58:35.998Z,15.10
2023-08-29T23:00:11.369Z,14.45
2023-08-29T23:01:43.518Z,17.73
2023-08-29T23:03:16.006Z,15.30
2023-08-29T23:04:48.323Z,14.23
2023-08-29T23:06:22.045Z,14.60
2023-08-29T23:07:54.141Z,16.05
2023-08-29T23:09:27.804Z,14.77
2023-08-29T23:11:00.042Z,15.00
2023-08-29T23:12:32.109Z,19.38
2023-08-29T23:14:04.582Z,14.90
2023-08-29T23:15:36.754Z,16.65
2023-08-29T23:17:11.907Z,14.80
2023-08-29T23:34:12.004Z,16.48
2023-08-29T23:35:47.602Z,14.90
2023-08-29T23:37:19.719Z,13.38
2023-08-29T23:38:55.287Z,14.57
2023-08-29T23:40:27.917Z,14.93
2023-08-29T23:42:01.302Z,16.98
2023-08-29T23:43:33.512Z,18.67
2023-08-29T23:45:07.324Z,16.08
2023-08-29T23:46:39.516Z,15.93
2023-08-29T23:48:11.923Z,14.70
2023-08-29T23:49:44.460Z,13.13
2023-08-29T23:51:16.850Z,15.98
2023-08-29T23:52:48.943Z,17.67
2023-08-29T23:54:21.100Z,17.83
2023-08-29T23:55:53.209Z,14.38
2023-08-29T23:57:25.290Z,16.55
2023-08-29T23:58:57.430Z,14.13
